Time;durP1;ratioP1;P1;durP2;ratioP2;P2;SDS_P1;SDS_P2;PMS_P1;PMS_P2;Temp;Humidity;BMP_temperature;BMP_pressure;BME280_temperature;BME280_humidity;BME280_pressure;Samples;Min_cycle;Max_cycle;Signal;HPM_P1;HPM_P2
2022/12/01 00:02:24;;;;;;;68.65;29.30;;;6.00;99.90;;;;;;5059869;28;20039;-85
2022/12/01 00:04:51;;;;;;;65.88;28.40;;;5.30;99.90;;;;;;5076143;28;20043;-84
2022/12/01 00:07:18;;;;;;;67.70;28.83;;;5.70;99.90;;;;;;5059721;28;20055;-84
2022/12/01 00:12:30;;;;;;;71.25;28.65;;;5.30;99.90;;;;;;5080880;28;20093;-85
2022/12/01 00:14:59;;;;;;;70.82;28.60;;;5.30;99.90;;;;;;5076427;28;20119;-85
2022/12/01 00:17:29;;;;;;;70.30;28.38;;;5.90;99.90;;;;;;5060920;28;20089;-84
2022/12/01 00:19:56;;;;;;;69.93;28.13;;;5.30;99.90;;;;;;5060004;28;20502;-85
2022/12/01 00:22:23;;;;;;;68.38;28.10;;;5.30;99.90;;;;;;5109426;28;20040;-84
2022/12/01 00:24:49;;;;;;;65.70;27.58;;;5.30;99.90;;;;;;5060008;28;20563;-84
2022/12/01 00:27:16;;;;;;;73.82;28.75;;;5.30;99.90;;;;;;5108845;28;20040;-84
2022/12/01 00:29:44;;;;;;;69.70;29.67;;;5.60;99.90;;;;;;5075994;28;20040;-84
2022/12/01 00:32:10;;;;;;;77.05;31.27;;;5.30;99.90;;;;;;5092610;28;20072;-84
2022/12/01 00:34:37;;;;;;;79.70;29.40;;;5.40;99.90;;;;;;5059623;28;20437;-84
2022/12/01 00:37:04;;;;;;;81.30;30.88;;;5.20;99.90;;;;;;5109041;28;20443;-84
2022/12/01 00:39:31;;;;;;;73.70;29.17;;;5.20;99.90;;;;;;5093026;28;20063;-84
2022/12/01 00:41:58;;;;;;;78.45;30.55;;;5.20;99.90;;;;;;5092583;28;20047;-84
2022/12/01 00:44:24;;;;;;;73.32;29.73;;;5.20;99.90;;;;;;5059812;28;20044;-84
2022/12/01 00:46:51;;;;;;;77.25;30.13;;;5.20;99.90;;;;;;5076190;28;20044;-84
2022/12/01 00:49:18;;;;;;;77.18;31.55;;;5.30;99.90;;;;;;5075590;28;20110;-84
2022/12/01 00:51:45;;;;;;;79.25;30.33;;;5.20;99.90;;;;;;5092514;28;20044;-84
2022/12/01 00:54:11;;;;;;;75.63;29.88;;;5.20;99.90;;;;;;5076185;28;20114;-85
2022/12/01 00:56:38;;;;;;;81.35;31.88;;;5.20;99.90;;;;;;5075908;28;20121;-85
2022/12/01 00:59:05;;;;;;;72.50;30.17;;;5.30;99.90;;;;;;5059025;28;20451;-84
2022/12/01 01:01:32;;;;;;;77.78;31.27;;;5.80;99.90;;;;;;5059808;28;20403;-84
2022/12/01 01:03:58;;;;;;;71.38;31.25;;;5.20;99.90;;;;;;5109391;28;20047;-84
2022/12/01 01:06:25;;;;;;;75.18;30.27;;;5.20;99.90;;;;;;5062961;28;20047;-84
2022/12/01 01:08:52;;;;;;;74.50;30.40;;;5.20;99.90;;;;;;5079798;28;20074;-84
2022/12/01 01:11:19;;;;;;;81.50;32.67;;;5.40;99.90;;;;;;5062729;28;20040;-84
2022/12/01 01:13:45;;;;;;;81.13;31.70;;;5.20;99.90;;;;;;5063176;28;20044;-84
2022/12/01 01:16:21;;;;;;;84.47;32.63;;;5.20;99.90;;;;;;5075556;28;20036;-84
2022/12/01 01:18:48;;;;;;;79.15;31.30;;;5.20;99.90;;;;;;5076290;28;20123;-85
2022/12/01 01:21:17;;;;;;;73.93;31.35;;;5.20;99.90;;;;;;5042930;28;20036;-84
2022/12/01 01:23:44;;;;;;;78.40;32.72;;;5.20;99.90;;;;;;5075741;28;20036;-84
2022/12/01 01:26:26;;;;;;;77.55;31.23;;;5.80;99.90;;;;;;5042912;28;20047;-84
2022/12/01 01:28:56;;;;;;;74.63;30.75;;;5.20;99.90;;;;;;5059407;28;20029;-84
2022/12/01 01:31:25;;;;;;;72.47;31.35;;;5.20;99.90;;;;;;5075147;28;20044;-84
2022/12/01 01:33:51;;;;;;;76.38;30.92;;;5.80;99.90;;;;;;5092036;28;20512;-84
2022/12/01 01:36:18;;;;;;;76.75;33.33;;;5.20;99.90;;;;;;5108345;28;20078;-84
2022/12/01 01:38:46;;;;;;;90.85;34.08;;;5.20;99.90;;;;;;5075357;28;20519;-84
2022/12/01 01:41:13;;;;;;;83.00;33.40;;;5.20;99.90;;;;;;5075140;28;20500;-84
2022/12/01 01:43:47;;;;;;;75.65;29.63;;;5.20;99.90;;;;;;5042762;28;20496;-84
2022/12/01 01:46:23;;;;;;;74.40;31.02;;;5.20;99.90;;;;;;5075584;28;20044;-84
2022/12/01 01:49:12;;;;;;;84.28;33.50;;;5.20;99.90;;;;;;5092729;28;20055;-84
2022/12/01 01:51:57;;;;;;;71.47;31.10;;;5.10;99.90;;;;;;5095496;28;20040;-84
2022/12/01 01:54:35;;;;;;;66.40;29.85;;;5.20;99.90;;;;;;5095371;28;20040;-84
2022/12/01 01:57:04;;;;;;;79.38;31.10;;;5.20;99.90;;;;;;5095497;28;20040;-83
2022/12/01 01:59:36;;;;;;;78.53;31.70;;;5.20;99.90;;;;;;5094846;28;20540;-84
2022/12/01 02:02:06;;;;;;;79.13;33.25;;;5.70;99.90;;;;;;5095252;28;20171;-84
2022/12/01 02:04:44;;;;;;;81.47;33.47;;;5.20;99.90;;;;;;5095430;28;20487;-84
2022/12/01 02:07:13;;;;;;;83.78;33.38;;;5.20;99.90;;;;;;5095540;28;20048;-85
2022/12/01 02:09:40;;;;;;;77.70;31.45;;;5.40;99.90;;;;;;5078617;28;20048;-84
2022/12/01 02:12:19;;;;;;;81.25;33.10;;;5.20;99.90;;;;;;5061796;28;20502;-84
2022/12/01 02:14:48;;;;;;;84.05;31.98;;;5.20;99.90;;;;;;5094939;28;20058;-84
2022/12/01 02:17:31;;;;;;;81.25;33.05;;;5.20;99.90;;;;;;5093618;28;20579;-84
2022/12/01 02:20:15;;;;;;;82.47;32.53;;;5.30;99.90;;;;;;5094596;28;20043;-84
2022/12/01 02:23:05;;;;;;;83.95;33.60;;;5.20;99.90;;;;;;5111657;28;20068;-84
2022/12/01 02:25:55;;;;;;;84.22;31.85;;;5.20;99.90;;;;;;5094619;28;20036;-84
2022/12/01 02:29:05;;;;;;;80.25;31.58;;;5.50;99.90;;;;;;5093711;28;20112;-84
2022/12/01 02:32:02;;;;;;;83.70;32.58;;;5.20;99.90;;;;;;5073608;28;20040;-84
2022/12/01 02:34:39;;;;;;;82.18;33.08;;;5.20;99.90;;;;;;5074428;28;20457;-84
2022/12/01 02:37:34;;;;;;;92.47;34.38;;;5.20;99.90;;;;;;5074502;28;20526;-84
2022/12/01 02:40:04;;;;;;;83.80;33.60;;;5.20;99.90;;;;;;5091081;28;20044;-84
2022/12/01 02:43:01;;;;;;;87.68;34.55;;;5.20;99.90;;;;;;5073916;28;20043;-84
2022/12/01 02:45:38;;;;;;;92.35;33.85;;;5.20;99.90;;;;;;5074081;28;20054;-84
2022/12/01 02:48:17;;;;;;;87.13;34.00;;;5.20;99.90;;;;;;5074049;28;20044;-84
2022/12/01 02:50:45;;;;;;;92.38;34.58;;;5.30;99.90;;;;;;5087477;28;20048;-84
2022/12/01 02:53:16;;;;;;;89.60;33.97;;;5.20;99.90;;;;;;5077375;28;20035;-85
2022/12/01 02:55:52;;;;;;;89.47;32.55;;;5.20;99.90;;;;;;5110604;28;20492;-84
2022/12/01 02:58:19;;;;;;;87.68;34.25;;;5.20;99.90;;;;;;5094334;28;20050;-84
2022/12/01 03:00:58;;;;;;;83.95;33.05;;;5.20;99.90;;;;;;5077005;28;20508;-84
2022/12/01 03:03:53;;;;;;;91.93;34.80;;;5.20;99.90;;;;;;5093932;28;20076;-84
2022/12/01 03:06:35;;;;;;;81.18;32.42;;;5.20;99.90;;;;;;5093852;28;20205;-84
2022/12/01 03:09:19;;;;;;;93.47;34.08;;;5.20;99.90;;;;;;5093957;28;20040;-84
2022/12/01 03:11:53;;;;;;;96.60;34.20;;;5.20;99.90;;;;;;5093383;28;20058;-84
2022/12/01 03:14:41;;;;;;;86.25;31.67;;;5.20;99.90;;;;;;5093776;28;20085;-85
2022/12/01 03:17:15;;;;;;;98.53;35.50;;;5.20;99.90;;;;;;5093736;28;20039;-84
2022/12/01 03:19:51;;;;;;;90.63;35.17;;;5.20;99.90;;;;;;5093574;28;20521;-85
2022/12/01 03:22:45;;;;;;;95.72;35.40;;;5.20;99.90;;;;;;5093539;28;20050;-84
2022/12/01 03:25:12;;;;;;;93.57;35.45;;;5.20;99.90;;;;;;5093613;28;20400;-84
2022/12/01 03:27:42;;;;;;;93.00;35.17;;;5.20;99.90;;;;;;5076081;28;20040;-84
2022/12/01 03:30:11;;;;;;;94.43;35.22;;;5.10;99.90;;;;;;5093284;28;20400;-84
2022/12/01 03:32:51;;;;;;;94.40;35.20;;;5.20;99.90;;;;;;5092639;28;20048;-85
2022/12/01 03:35:27;;;;;;;97.68;35.22;;;5.20;99.90;;;;;;5093440;28;20468;-84
2022/12/01 03:37:57;;;;;;;97.22;36.33;;;5.20;99.90;;;;;;5093371;28;20036;-84
2022/12/01 03:40:27;;;;;;;95.95;36.75;;;5.20;99.90;;;;;;5092973;28;20093;-85
2022/12/01 03:42:56;;;;;;;112.53;35.95;;;5.20;99.90;;;;;;5093190;28;20529;-84
2022/12/01 03:45:30;;;;;;;90.18;35.30;;;5.20;99.90;;;;;;5093133;28;20455;-85
2022/12/01 03:47:57;;;;;;;94.38;35.55;;;5.30;99.90;;;;;;5093158;28;20044;-84
2022/12/01 03:50:37;;;;;;;94.63;35.75;;;5.20;99.90;;;;;;5093185;28;20079;-85
2022/12/01 03:53:10;;;;;;;88.32;34.65;;;5.20;99.90;;;;;;5093046;28;20036;-84
2022/12/01 03:55:42;;;;;;;98.47;37.10;;;5.20;99.90;;;;;;5092973;28;20036;-84
2022/12/01 03:58:15;;;;;;;92.97;34.42;;;5.40;99.90;;;;;;5093194;28;20036;-84
2022/12/01 04:00:43;;;;;;;90.47;35.47;;;5.40;99.90;;;;;;5092748;28;20093;-84
2022/12/01 04:03:17;;;;;;;94.57;35.05;;;5.80;99.90;;;;;;5092915;28;20047;-85
2022/12/01 04:05:44;;;;;;;105.88;36.15;;;5.40;99.90;;;;;;5092786;28;20044;-84
2022/12/01 04:08:10;;;;;;;101.35;35.47;;;5.20;99.90;;;;;;5092550;28;20510;-84
2022/12/01 04:10:37;;;;;;;91.63;34.72;;;5.50;99.90;;;;;;5076107;28;20039;-84
2022/12/01 04:13:04;;;;;;;93.75;36.55;;;5.20;99.90;;;;;;5059895;28;20181;-84
2022/12/01 04:15:30;;;;;;;97.55;35.38;;;5.20;99.90;;;;;;5076239;28;20036;-85
2022/12/01 04:17:57;;;;;;;93.72;36.38;;;5.30;99.90;;;;;;5059589;28;20078;-84
2022/12/01 04:20:24;;;;;;;97.40;34.55;;;5.20;99.90;;;;;;5092591;28;20036;-84
2022/12/01 04:22:50;;;;;;;91.68;35.10;;;5.20;99.90;;;;;;5059526;28;20032;-85
2022/12/01 04:25:17;;;;;;;96.38;35.20;;;5.10;99.90;;;;;;5059782;28;20047;-84
2022/12/01 04:27:44;;;;;;;98.85;35.90;;;5.20;99.90;;;;;;5075812;28;20181;-84
2022/12/01 04:30:11;;;;;;;101.10;35.80;;;5.20;99.90;;;;;;5076121;28;20032;-84
2022/12/01 04:32:39;;;;;;;104.82;35.92;;;5.20;99.90;;;;;;5076052;28;20546;-84
2022/12/01 04:35:08;;;;;;;100.53;36.15;;;5.20;99.90;;;;;;5076378;28;20047;-84
2022/12/01 04:37:35;;;;;;;92.53;34.92;;;5.20;99.90;;;;;;5092463;28;20043;-85
2022/12/01 04:40:03;;;;;;;101.18;35.75;;;5.20;99.90;;;;;;5094695;28;20473;-84
2022/12/01 04:42:30;;;;;;;98.60;34.03;;;5.20;99.90;;;;;;5096700;28;20050;-84
2022/12/01 04:44:57;;;;;;;92.22;34.95;;;5.20;99.90;;;;;;5079868;28;20036;-84
2022/12/01 04:47:23;;;;;;;103.30;36.05;;;5.20;99.90;;;;;;5097016;28;20484;-84
2022/12/01 04:49:50;;;;;;;101.88;36.63;;;5.20;99.90;;;;;;5096709;28;20036;-84
2022/12/01 04:52:17;;;;;;;93.78;36.47;;;5.20;99.90;;;;;;5113253;28;20040;-84
2022/12/01 04:54:44;;;;;;;93.72;36.28;;;5.20;99.90;;;;;;5079966;28;20063;-84
2022/12/01 04:57:10;;;;;;;98.40;35.20;;;5.20;99.90;;;;;;5096455;28;20089;-84
2022/12/01 04:59:37;;;;;;;94.10;34.38;;;5.50;99.90;;;;;;5062664;28;20500;-84
2022/12/01 05:02:04;;;;;;;93.78;33.33;;;5.20;99.90;;;;;;5079884;28;20047;-84
2022/12/01 05:04:32;;;;;;;96.47;34.40;;;5.30;99.90;;;;;;5063276;28;20094;-84
2022/12/01 05:06:59;;;;;;;94.80;34.45;;;5.20;99.90;;;;;;5096302;28;20070;-84
2022/12/01 05:09:26;;;;;;;100.25;35.22;;;5.20;99.90;;;;;;5079976;28;20043;-85
2022/12/01 05:11:52;;;;;;;104.38;34.88;;;5.20;99.90;;;;;;5062892;28;20059;-84
2022/12/01 05:14:19;;;;;;;97.53;32.05;;;5.30;99.90;;;;;;5079592;28;20032;-84
2022/12/01 05:16:46;;;;;;;105.03;34.13;;;5.20;99.90;;;;;;5079337;28;20047;-84
2022/12/01 05:21:57;;;;;;;87.00;33.63;;;5.20;99.90;;;;;;5084240;28;20052;-84
2022/12/01 05:24:24;;;;;;;100.63;34.72;;;5.20;99.90;;;;;;5079446;28;20040;-84
2022/12/01 05:26:51;;;;;;;95.25;34.00;;;5.40;99.90;;;;;;5079174;28;20050;-84
2022/12/01 05:29:17;;;;;;;101.80;34.08;;;5.20;99.90;;;;;;5079384;28;20538;-84
2022/12/01 05:31:45;;;;;;;93.68;34.13;;;5.20;99.90;;;;;;5078844;28;20044;-84
2022/12/01 05:34:12;;;;;;;96.80;33.42;;;5.20;99.90;;;;;;5096094;28;20032;-84
2022/12/01 05:36:38;;;;;;;91.65;32.15;;;5.30;99.90;;;;;;5079071;28;20036;-84
2022/12/01 05:39:05;;;;;;;98.82;33.35;;;5.50;99.90;;;;;;5062588;28;20040;-84
2022/12/01 05:41:32;;;;;;;98.78;33.25;;;5.40;99.90;;;;;;5078682;28;20123;-84
2022/12/01 05:43:58;;;;;;;84.65;31.88;;;5.20;99.90;;;;;;5062413;28;20125;-84
2022/12/01 05:46:25;;;;;;;97.07;33.53;;;5.20;99.90;;;;;;5095338;28;20055;-84
2022/12/01 05:48:52;;;;;;;99.57;32.10;;;5.20;99.90;;;;;;5078955;28;20043;-84
2022/12/01 05:51:19;;;;;;;95.60;34.28;;;5.20;99.90;;;;;;5061977;28;20044;-84
2022/12/01 05:53:45;;;;;;;91.22;33.45;;;5.20;99.90;;;;;;5079150;28;20075;-84
2022/12/01 05:56:12;;;;;;;89.18;32.90;;;5.40;99.90;;;;;;5062295;28;20036;-84
2022/12/01 05:58:39;;;;;;;85.53;31.50;;;5.30;99.90;;;;;;5078702;28;20043;-84
2022/12/01 06:01:06;;;;;;;92.20;33.10;;;5.20;99.90;;;;;;5061840;28;20109;-84
2022/12/01 06:03:32;;;;;;;92.13;33.40;;;5.20;99.90;;;;;;5078683;28;20047;-84
2022/12/01 06:05:59;;;;;;;84.28;31.35;;;5.20;99.90;;;;;;5078648;28;20071;-84
2022/12/01 06:08:26;;;;;;;86.75;32.33;;;5.40;99.90;;;;;;5078461;28;20043;-84
2022/12/01 06:10:53;;;;;;;87.63;32.30;;;5.20;99.90;;;;;;5078401;28;20400;-84
2022/12/01 06:13:19;;;;;;;86.72;33.97;;;5.20;99.90;;;;;;5094709;28;20553;-84
2022/12/01 06:15:58;;;;;;;80.35;31.55;;;5.20;99.90;;;;;;5061845;28;20507;-84
2022/12/01 06:18:43;;;;;;;75.88;30.58;;;5.20;99.90;;;;;;5078378;28;20082;-85
2022/12/01 06:21:09;;;;;;;81.82;30.42;;;5.20;99.90;;;;;;5078030;28;20047;-85
2022/12/01 06:23:36;;;;;;;77.28;31.13;;;5.20;99.90;;;;;;5061571;28;20040;-85
2022/12/01 06:26:03;;;;;;;87.07;31.52;;;6.00;99.90;;;;;;5094645;28;20069;-84
2022/12/01 06:28:30;;;;;;;85.05;31.17;;;5.20;99.90;;;;;;5094908;28;20040;-84
2022/12/01 06:30:57;;;;;;;80.53;32.25;;;5.20;99.90;;;;;;5077817;28;20044;-84
2022/12/01 06:33:23;;;;;;;80.35;30.70;;;5.90;99.90;;;;;;5094889;28;20032;-84
2022/12/01 06:35:59;;;;;;;81.45;32.80;;;5.30;99.90;;;;;;5061899;28;20075;-84
2022/12/01 06:38:30;;;;;;;85.80;30.25;;;5.20;99.90;;;;;;5111306;28;20040;-84
2022/12/01 06:40:57;;;;;;;80.07;31.15;;;5.20;99.90;;;;;;5077787;28;20580;-84
2022/12/01 06:43:23;;;;;;;81.63;31.50;;;5.20;99.90;;;;;;5078119;28;20071;-84
2022/12/01 06:45:50;;;;;;;82.47;30.95;;;5.20;99.90;;;;;;5094575;28;20117;-84
2022/12/01 06:48:17;;;;;;;82.90;31.83;;;5.80;99.90;;;;;;5077672;28;20089;-85
2022/12/01 06:50:43;;;;;;;82.93;31.23;;;5.20;99.90;;;;;;5094658;28;20047;-84
2022/12/01 06:53:10;;;;;;;84.65;29.90;;;5.10;99.90;;;;;;5077519;28;20044;-84
2022/12/01 06:55:38;;;;;;;74.60;29.38;;;5.20;99.90;;;;;;5077874;28;20036;-84
2022/12/01 06:58:05;;;;;;;75.90;29.60;;;6.10;99.90;;;;;;5094218;28;20066;-85
2022/12/01 07:00:31;;;;;;;81.35;28.98;;;5.10;99.90;;;;;;5077252;28;20496;-85
2022/12/01 07:02:58;;;;;;;76.32;28.80;;;5.10;99.90;;;;;;5060353;28;20047;-84
2022/12/01 07:05:25;;;;;;;66.65;26.65;;;5.10;99.90;;;;;;5061051;28;20040;-85
2022/12/01 07:07:52;;;;;;;77.80;27.52;;;5.10;99.90;;;;;;5110720;28;20044;-85
2022/12/01 07:10:18;;;;;;;72.63;25.90;;;5.80;99.90;;;;;;5063123;28;20097;-84
2022/12/01 07:12:45;;;;;;;72.55;27.98;;;5.10;99.90;;;;;;5093431;28;20040;-84
2022/12/01 07:15:12;;;;;;;68.22;27.35;;;5.10;99.90;;;;;;5060493;28;20092;-84
2022/12/01 07:17:39;;;;;;;66.28;25.90;;;5.10;99.90;;;;;;5077017;28;20051;-84
2022/12/01 07:20:06;;;;;;;64.20;25.38;;;5.10;99.90;;;;;;5076145;28;20040;-84
2022/12/01 07:22:32;;;;;;;65.03;25.30;;;5.10;99.90;;;;;;5076759;28;20044;-87
2022/12/01 07:24:59;;;;;;;69.38;25.63;;;5.10;99.90;;;;;;5060160;28;20393;-83
2022/12/01 07:27:29;;;;;;;68.53;26.30;;;5.50;99.90;;;;;;5059525;28;20028;-85
2022/12/01 07:29:56;;;;;;;62.22;25.40;;;5.50;99.90;;;;;;5085747;28;20051;-84
2022/12/01 07:32:22;;;;;;;65.78;24.60;;;5.10;99.90;;;;;;5067463;28;20036;-84
2022/12/01 07:34:49;;;;;;;59.67;24.95;;;5.10;99.90;;;;;;5070183;28;20121;-85
2022/12/01 07:37:16;;;;;;;67.47;25.40;;;5.10;99.90;;;;;;5042919;28;20048;-85
2022/12/01 07:39:42;;;;;;;66.72;23.98;;;5.10;99.90;;;;;;5067586;28;20085;-85
2022/12/01 07:42:09;;;;;;;71.68;26.15;;;5.10;99.90;;;;;;5059673;28;20093;-84
2022/12/01 07:44:36;;;;;;;59.60;23.25;;;5.50;99.90;;;;;;5060029;28;20122;-85
2022/12/01 07:47:02;;;;;;;44.80;16.73;;;5.10;99.90;;;;;;5071610;28;20094;-84
2022/12/01 07:49:29;;;;;;;60.08;22.77;;;5.10;99.90;;;;;;5109651;28;20035;-84
2022/12/01 07:51:56;;;;;;;59.72;23.52;;;5.10;99.90;;;;;;5060202;28;20101;-85
2022/12/01 07:54:24;;;;;;;62.10;23.23;;;5.20;99.90;;;;;;5092891;28;20774;-85
2022/12/01 07:56:51;;;;;;;65.30;25.17;;;5.40;99.90;;;;;;5060353;28;20092;-84
2022/12/01 07:59:17;;;;;;;61.22;23.73;;;6.00;99.90;;;;;;5059357;28;20499;-85
2022/12/01 08:01:45;;;;;;;63.35;23.73;;;5.30;99.90;;;;;;5076494;28;20048;-84
2022/12/01 08:04:11;;;;;;;67.95;24.90;;;5.70;99.90;;;;;;5059568;28;20043;-84
2022/12/01 08:06:38;;;;;;;69.97;24.25;;;5.20;99.90;;;;;;5059637;28;20031;-86
2022/12/01 08:09:05;;;;;;;67.65;24.60;;;5.20;99.90;;;;;;5075881;28;20132;-83
2022/12/01 08:11:31;;;;;;;61.78;23.67;;;5.20;99.90;;;;;;5076357;28;20126;-85
2022/12/01 08:13:58;;;;;;;62.92;22.63;;;5.50;99.90;;;;;;5092905;28;20040;-85
2022/12/01 08:16:25;;;;;;;60.70;24.40;;;5.20;99.90;;;;;;5076050;28;20032;-85
2022/12/01 08:18:52;;;;;;;60.78;23.15;;;5.20;99.90;;;;;;5060034;28;20040;-85
2022/12/01 08:21:21;;;;;;;68.55;25.15;;;5.30;99.90;;;;;;5092817;28;20077;-85
2022/12/01 08:23:52;;;;;;;58.35;23.13;;;5.20;99.90;;;;;;5109342;28;20464;-84
2022/12/01 08:26:20;;;;;;;65.40;24.98;;;5.30;99.90;;;;;;5092440;28;20548;-84
2022/12/01 08:28:47;;;;;;;63.33;24.90;;;5.30;99.90;;;;;;5109375;28;20093;-84
2022/12/01 08:31:23;;;;;;;63.72;25.00;;;5.80;99.90;;;;;;5076185;28;20054;-85
2022/12/01 08:33:50;;;;;;;;;;;5.30;99.90;;;;;;5092954;28;20547;-85
2022/12/01 08:36:19;;;;;;;62.25;24.88;;;5.30;99.90;;;;;;5092857;28;19923;-84
2022/12/01 08:38:48;;;;;;;64.63;24.05;;;5.40;99.90;;;;;;5060033;28;20152;-84
2022/12/01 08:41:15;;;;;;;65.35;24.27;;;5.30;99.90;;;;;;5092451;28;20044;-85
2022/12/01 08:43:43;;;;;;;67.15;25.60;;;5.40;99.90;;;;;;5109003;28;20871;-84
2022/12/01 08:46:11;;;;;;;63.17;24.10;;;5.40;99.90;;;;;;5076128;28;20040;-84
2022/12/01 08:48:39;;;;;;;66.72;26.40;;;5.40;99.90;;;;;;5092625;28;20050;-84
2022/12/01 08:51:12;;;;;;;63.22;25.88;;;5.30;99.90;;;;;;5092383;28;20381;-85
2022/12/01 08:53:41;;;;;;;60.83;25.58;;;5.40;99.90;;;;;;5092284;28;20036;-84
2022/12/01 08:56:21;;;;;;;60.90;23.00;;;5.40;99.90;;;;;;5091078;28;20111;-85
2022/12/01 08:58:49;;;;;;;63.20;24.13;;;5.40;99.90;;;;;;5108913;28;20048;-84
2022/12/01 09:01:17;;;;;;;65.70;23.95;;;5.40;99.90;;;;;;5088784;28;20097;-83
2022/12/01 09:03:44;;;;;;;67.03;24.38;;;5.40;99.90;;;;;;5089262;28;20048;-85
2022/12/01 09:06:14;;;;;;;61.58;23.65;;;5.40;99.90;;;;;;5107798;28;20044;-84
2022/12/01 09:08:41;;;;;;;68.00;25.73;;;5.40;99.90;;;;;;5089900;28;20515;-85
2022/12/01 09:11:18;;;;;;;63.92;24.20;;;5.50;99.90;;;;;;5069062;28;20040;-84
2022/12/01 09:13:45;;;;;;;72.13;25.92;;;5.50;99.90;;;;;;5090955;28;20385;-85
2022/12/01 09:16:16;;;;;;;67.85;25.75;;;6.10;99.90;;;;;;5071140;28;20041;-85
2022/12/01 09:18:47;;;;;;;60.35;23.40;;;5.50;99.90;;;;;;5093260;28;20040;-86
2022/12/01 09:21:20;;;;;;;67.78;24.77;;;6.30;99.90;;;;;;5073874;28;20043;-85
2022/12/01 09:23:48;;;;;;;75.40;24.45;;;5.50;99.90;;;;;;5095584;28;20040;-85
2022/12/01 09:26:17;;;;;;;65.65;24.67;;;5.50;99.90;;;;;;5092382;28;20063;-84
2022/12/01 09:28:51;;;;;;;63.60;24.67;;;5.60;99.90;;;;;;5094307;28;20105;-85
2022/12/01 09:31:19;;;;;;;66.63;25.27;;;5.50;99.90;;;;;;5092078;28;20446;-85
2022/12/01 09:33:46;;;;;;;65.45;23.65;;;5.60;99.90;;;;;;5112425;28;20040;-85
2022/12/01 09:36:13;;;;;;;61.70;24.40;;;5.60;99.90;;;;;;5099664;28;20105;-84
2022/12/01 09:38:39;;;;;;;64.30;25.50;;;5.60;99.90;;;;;;5065020;28;20045;-84
2022/12/01 09:41:11;;;;;;;63.47;24.02;;;5.50;99.90;;;;;;5078992;28;20036;-87
2022/12/01 09:43:42;;;;;;;54.92;24.48;;;5.60;99.90;;;;;;5097504;28;20466;-86
2022/12/01 09:46:20;;;;;;;58.88;23.85;;;5.60;99.90;;;;;;5095390;28;20051;-85
2022/12/01 09:48:50;;;;;;;46.30;21.48;;;5.60;99.90;;;;;;5095900;28;20118;-86
2022/12/01 09:51:28;;;;;;;59.03;22.80;;;5.70;99.90;;;;;;5094991;28;20123;-84
2022/12/01 09:53:58;;;;;;;55.33;21.95;;;5.60;99.90;;;;;;5079515;28;20040;-86
2022/12/01 09:56:45;;;;;;;55.85;21.80;;;5.60;99.90;;;;;;5078726;28;20050;-85
2022/12/01 09:59:18;;;;;;;53.97;22.73;;;5.60;99.90;;;;;;5094800;28;20117;-85
2022/12/01 10:01:50;;;;;;;60.53;23.38;;;5.60;99.90;;;;;;5095124;28;20043;-86
2022/12/01 10:04:44;;;;;;;47.95;20.52;;;5.70;99.90;;;;;;5095069;28;20078;-84
2022/12/01 10:07:26;;;;;;;51.25;21.08;;;5.70;99.90;;;;;;5064500;28;20071;-86
2022/12/01 10:09:59;;;;;;;52.83;22.65;;;5.60;99.90;;;;;;5079441;28;20492;-84
2022/12/01 10:12:34;;;;;;;50.20;21.60;;;5.60;99.90;;;;;;5101460;28;20102;-85
2022/12/01 10:15:22;;;;;;;50.67;21.65;;;5.60;99.90;;;;;;5094655;28;20060;-84
2022/12/01 10:18:10;;;;;;;53.42;21.23;;;5.60;99.90;;;;;;5087115;28;20403;-85
2022/12/01 10:20:43;;;;;;;50.25;19.73;;;5.60;99.90;;;;;;5099197;28;20093;-85
2022/12/01 10:23:29;;;;;;;52.00;21.80;;;5.60;99.90;;;;;;5089139;28;20036;-85
2022/12/01 10:25:59;;;;;;;51.90;20.87;;;5.70;99.90;;;;;;5105782;28;20042;-84
2022/12/01 10:28:50;;;;;;;49.33;21.20;;;5.70;99.90;;;;;;5096393;28;20281;-85
2022/12/01 10:31:24;;;;;;;53.95;21.13;;;5.60;99.90;;;;;;5094845;28;20043;-86
2022/12/01 10:33:50;;;;;;;51.13;21.30;;;5.70;99.90;;;;;;5097241;28;20032;-85
2022/12/01 10:36:17;;;;;;;49.67;20.45;;;5.70;99.90;;;;;;5093452;28;20047;-85
2022/12/01 10:38:43;;;;;;;51.30;19.75;;;6.50;99.90;;;;;;5059150;28;20046;-86
2022/12/01 10:41:14;;;;;;;50.92;20.90;;;5.70;99.90;;;;;;5041650;28;20043;-86
2022/12/01 10:43:47;;;;;;;53.55;21.08;;;5.70;99.90;;;;;;5106881;28;20822;-85
2022/12/01 10:46:36;;;;;;;45.88;20.85;;;5.60;99.90;;;;;;5111454;28;20071;-86
2022/12/01 10:49:12;;;;;;;50.70;20.20;;;5.60;99.90;;;;;;5101667;28;20126;-86
2022/12/01 10:51:55;;;;;;;48.83;21.65;;;5.80;99.90;;;;;;5094514;28;20408;-87
2022/12/01 10:54:30;;;;;;;47.83;20.48;;;5.70;99.90;;;;;;5094101;28;20036;-86
2022/12/01 10:56:57;;;;;;;43.30;19.80;;;5.70;99.90;;;;;;5108447;28;20119;-86
2022/12/01 10:59:30;;;;;;;51.05;21.02;;;5.70;99.90;;;;;;5091436;28;20048;-87
2022/12/01 11:01:59;;;;;;;45.97;19.80;;;5.70;99.90;;;;;;5098906;28;20075;-86
2022/12/01 11:04:43;;;;;;;49.30;21.58;;;5.80;99.90;;;;;;5093163;28;20075;-86
2022/12/01 11:07:20;;;;;;;46.75;20.23;;;5.80;99.90;;;;;;5094079;28;20044;-86
2022/12/01 11:10:03;;;;;;;49.00;21.77;;;5.80;99.90;;;;;;5083481;28;20051;-86
2022/12/01 11:12:30;;;;;;;45.97;20.58;;;5.80;99.90;;;;;;5093121;28;20044;-85
2022/12/01 11:14:58;;;;;;;46.95;20.17;;;5.80;99.90;;;;;;5077318;28;20553;-85
2022/12/01 11:17:30;;;;;;;50.50;20.63;;;5.80;99.90;;;;;;5101751;28;20036;-84
2022/12/01 11:19:57;;;;;;;54.80;21.25;;;5.90;99.90;;;;;;5093869;28;20089;-85
2022/12/01 11:22:27;;;;;;;51.03;21.23;;;5.80;99.90;;;;;;5060667;28;20040;-84
2022/12/01 11:24:56;;;;;;;50.13;21.17;;;5.80;99.90;;;;;;5089835;28;20076;-85
2022/12/01 11:27:30;;;;;;;49.70;22.13;;;6.10;99.90;;;;;;5073416;28;20041;-85
2022/12/01 11:30:19;;;;;;;44.40;21.08;;;5.90;99.90;;;;;;5093680;28;20446;-85
2022/12/01 11:32:58;;;;;;;46.20;21.10;;;5.90;99.90;;;;;;5095194;28;20097;-85
2022/12/01 11:35:29;;;;;;;47.55;19.95;;;5.80;99.90;;;;;;5093711;28;20036;-84
2022/12/01 11:37:59;;;;;;;46.00;20.83;;;5.90;99.90;;;;;;5091772;28;20611;-85
2022/12/01 11:40:32;;;;;;;42.28;20.23;;;5.90;99.90;;;;;;5107763;28;20035;-84
2022/12/01 11:43:04;;;;;;;44.58;20.90;;;5.90;99.90;;;;;;5084282;28;20039;-85
2022/12/01 11:45:38;;;;;;;41.40;20.42;;;5.80;99.90;;;;;;5086842;28;20044;-85
2022/12/01 11:48:17;;;;;;;40.72;19.50;;;5.80;99.90;;;;;;5114727;28;20047;-85
2022/12/01 11:51:17;;;;;;;44.97;19.83;;;5.80;99.90;;;;;;5092733;28;20093;-85
2022/12/01 11:53:43;;;;;;;47.83;21.75;;;5.80;99.90;;;;;;5102523;28;20502;-85
2022/12/01 11:56:22;;;;;;;43.50;20.73;;;5.80;99.90;;;;;;5092929;28;20119;-85
2022/12/01 11:58:53;;;;;;;46.53;21.65;;;5.80;99.90;;;;;;5089924;28;20035;-86
2022/12/01 12:01:56;;;;;;;45.20;22.02;;;5.80;99.90;;;;;;5093050;28;20808;-86
2022/12/01 12:05:04;;;;;;;46.13;22.83;;;5.80;99.90;;;;;;5084415;28;20492;-86
2022/12/01 12:08:06;;;;;;;48.03;22.67;;;5.80;99.90;;;;;;5108006;28;20051;-86
2022/12/01 12:10:51;;;;;;;48.92;22.92;;;5.80;99.90;;;;;;5062805;28;20492;-86
2022/12/01 12:13:33;;;;;;;44.70;22.05;;;5.80;99.90;;;;;;5099392;28;20044;-85
2022/12/01 12:16:21;;;;;;;51.03;23.38;;;5.80;99.90;;;;;;5085588;28;20484;-85
2022/12/01 12:18:58;;;;;;;48.80;22.60;;;5.80;99.90;;;;;;5083490;28;20534;-86
2022/12/01 12:21:33;;;;;;;51.50;24.52;;;5.80;99.90;;;;;;5081695;28;20078;-86
2022/12/01 12:24:37;;;;;;;54.35;25.67;;;5.80;99.90;;;;;;5080545;28;20090;-86
2022/12/01 12:27:53;;;;;;;52.72;25.48;;;5.80;99.90;;;;;;5114860;28;20411;-85
2022/12/01 12:30:21;;;;;;;51.72;25.48;;;5.80;99.90;;;;;;5096731;28;20048;-86
2022/12/01 12:33:03;;;;;;;58.25;25.20;;;5.80;99.90;;;;;;5091571;28;20036;-87
2022/12/01 12:36:11;;;;;;;58.35;27.17;;;5.80;99.90;;;;;;5077647;28;20042;-85
2022/12/01 12:38:48;;;;;;;55.20;27.48;;;5.80;99.90;;;;;;5072359;28;20047;-86
2022/12/01 12:41:49;;;;;;;57.67;26.35;;;5.80;99.90;;;;;;5072678;28;20044;-86
2022/12/01 12:44:37;;;;;;;59.15;28.13;;;5.80;99.90;;;;;;5050333;28;20052;-85
2022/12/01 12:47:42;;;;;;;57.90;27.23;;;5.80;99.90;;;;;;5090047;28;20058;-85
2022/12/01 12:50:35;;;;;;;59.33;28.02;;;5.80;99.90;;;;;;5062668;28;20590;-86
2022/12/01 12:53:12;;;;;;;62.45;27.90;;;5.70;99.90;;;;;;5073719;28;20408;-85
2022/12/01 12:55:46;;;;;;;59.65;29.20;;;5.70;99.90;;;;;;5092264;28;20036;-86
2022/12/01 12:58:32;;;;;;;66.57;29.92;;;6.10;99.90;;;;;;5092820;28;20055;-86
2022/12/01 13:01:17;;;;;;;69.30;32.10;;;5.70;99.90;;;;;;5092129;28;20052;-86
2022/12/01 13:04:10;;;;;;;60.90;27.48;;;5.60;99.90;;;;;;5096157;28;20512;-86
2022/12/01 13:06:46;;;;;;;59.10;29.27;;;5.60;99.90;;;;;;5091610;28;20464;-85
2022/12/01 13:09:45;;;;;;;;;;;5.90;99.90;;;;;;5103584;28;20039;-86
2022/12/01 13:12:27;;;;;;;69.20;30.08;;;5.60;99.90;;;;;;5041166;28;19921;-86